createdAt,value
2019-04-26T00:02:03.285Z,98788.81
2019-04-26T00:04:37.798Z,98792.66
2019-04-26T00:07:12.520Z,98789.00
2019-04-26T00:09:47.238Z,98781.97
2019-04-26T00:12:48.662Z,98785.47
2019-04-26T00:15:30.947Z,98788.67
2019-04-26T00:18:04.782Z,98782.30
2019-04-26T00:20:38.764Z,98782.83
2019-04-26T00:23:14.079Z,98782.29
2019-04-26T00:25:47.327Z,98788.61
2019-04-26T00:28:21.512Z,98781.59
2019-04-26T00:30:55.297Z,98785.44
2019-04-26T00:33:28.604Z,98790.66
2019-04-26T00:36:01.863Z,98793.67
2019-04-26T00:38:35.362Z,98783.42
2019-04-26T00:41:09.294Z,98778.37
2019-04-26T00:43:43.516Z,98778.36
2019-04-26T00:46:24.412Z,98781.67
2019-04-26T00:49:01.835Z,98779.52
2019-04-26T00:51:35.999Z,98779.50
2019-04-26T00:54:09.500Z,98776.98
2019-04-26T00:56:43.836Z,98769.66
2019-04-26T00:59:18.320Z,98768.08
2019-04-26T01:01:56.714Z,98766.63
2019-04-26T01:04:31.181Z,98766.22
2019-04-26T01:07:05.192Z,98773.80
2019-04-26T01:09:38.889Z,98773.56
2019-04-26T01:12:12.728Z,98774.77
2019-04-26T01:14:46.292Z,98776.04
2019-04-26T01:17:20.347Z,98776.06
2019-04-26T01:19:58.367Z,98771.09
2019-04-26T01:22:37.537Z,98764.42
2019-04-26T01:25:31.975Z,98762.53
2019-04-26T01:28:07.356Z,98766.95
2019-04-26T01:30:41.346Z,98768.85
2019-04-26T01:33:16.024Z,98766.10
2019-04-26T01:35:50.085Z,98766.66
2019-04-26T01:38:23.760Z,98766.98
2019-04-26T01:41:01.145Z,98767.64
2019-04-26T01:44:00.337Z,98769.79
2019-04-26T01:46:40.566Z,98767.64
2019-04-26T01:49:15.998Z,98760.70
2019-04-26T01:52:05.426Z,98767.80
2019-04-26T01:54:45.786Z,98768.60
2019-04-26T01:57:23.665Z,98765.47
2019-04-26T02:00:03.004Z,98756.80
2019-04-26T02:02:49.250Z,98762.78
2019-04-26T02:05:28.050Z,98769.28
2019-04-26T02:08:01.447Z,98768.51
2019-04-26T02:10:35.527Z,98771.16
2019-04-26T02:13:08.774Z,98772.14
2019-04-26T02:15:42.006Z,98766.47
2019-04-26T02:18:15.634Z,98767.92
2019-04-26T02:21:01.595Z,98760.41
2019-04-26T02:23:46.494Z,98763.03
2019-04-26T02:26:37.066Z,98765.17
2019-04-26T02:29:16.197Z,98758.62
2019-04-26T02:31:54.674Z,98759.63
2019-04-26T02:34:36.020Z,98756.31
2019-04-26T02:37:13.161Z,98761.68
2019-04-26T02:39:46.886Z,98762.92
2019-04-26T02:42:42.309Z,98766.95
2019-04-26T02:46:18.675Z,98772.98
2019-04-26T02:49:36.736Z,98777.05
2019-04-26T02:52:29.726Z,98763.44
2019-04-26T02:55:20.042Z,98762.55
2019-04-26T02:57:55.797Z,98758.85
2019-04-26T03:00:30.192Z,98768.27
2019-04-26T03:03:09.498Z,98773.41
2019-04-26T03:05:45.323Z,98772.55
2019-04-26T03:08:22.889Z,98771.47
2019-04-26T03:11:16.726Z,98774.70
2019-04-26T03:14:05.144Z,98776.75
2019-04-26T03:16:59.711Z,98778.30
2019-04-26T03:19:50.193Z,98781.25
2019-04-26T03:23:14.606Z,98765.48
2019-04-26T03:26:43.969Z,98756.41
2019-04-26T03:29:51.478Z,98747.89
2019-04-26T03:33:18.294Z,98748.45
2019-04-26T03:36:15.759Z,98747.62
2019-04-26T03:39:27.874Z,98745.08
2019-04-26T03:42:40.837Z,98750.46
2019-04-26T03:45:56.534Z,98750.32
2019-04-26T03:48:49.104Z,98749.02
2019-04-26T03:52:08.975Z,98759.27
2019-04-26T03:54:45.356Z,98766.31
2019-04-26T03:57:36.322Z,98763.95
2019-04-26T04:00:41.342Z,98760.59
2019-04-26T04:03:59.922Z,98753.55
2019-04-26T04:06:52.724Z,98747.05
2019-04-26T04:09:17.944Z,98746.08
2019-04-26T04:12:10.793Z,98737.41
2019-04-26T04:15:08.555Z,98730.95
2019-04-26T04:18:06.554Z,98734.04
2019-04-26T04:21:35.544Z,98717.78
2019-04-26T04:24:31.159Z,98712.16
2019-04-26T04:27:44.055Z,98724.52
2019-04-26T04:31:16.367Z,98727.33
2019-04-26T04:34:25.809Z,98725.20
2019-04-26T04:37:04.215Z,98734.08
2019-04-26T04:40:35.859Z,98730.16
2019-04-26T04:43:33.637Z,98739.06
2019-04-26T04:47:22.375Z,98749.32
2019-04-26T04:49:56.161Z,98760.97
2019-04-26T04:52:53.489Z,98774.66
2019-04-26T04:55:53.538Z,98788.39
2019-04-26T04:58:37.522Z,98808.34
2019-04-26T05:02:11.366Z,98825.27
2019-04-26T05:05:44.894Z,98831.87
2019-04-26T05:09:01.342Z,98836.88
2019-04-26T05:11:53.943Z,98844.67
2019-04-26T05:15:06.862Z,98868.27
2019-04-26T05:18:36.241Z,98864.57
2019-04-26T05:21:52.981Z,98869.37
2019-04-26T05:24:53.236Z,98873.13
2019-04-26T05:28:02.685Z,98867.11
2019-04-26T05:31:32.800Z,98874.11
2019-04-26T05:34:54.836Z,98873.61
2019-04-26T05:38:19.200Z,98882.27
2019-04-26T05:41:59.203Z,98877.25
2019-04-26T05:45:27.136Z,98835.70
2019-04-26T05:48:33.226Z,98841.38
2019-04-26T05:52:11.093Z,98837.48
2019-04-26T05:55:35.495Z,98820.98
2019-04-26T05:59:00.188Z,98834.56
2019-04-26T06:02:23.603Z,98834.42
2019-04-26T06:05:52.315Z,98812.45
2019-04-26T06:09:26.461Z,98814.42
2019-04-26T06:12:37.957Z,98804.23
2019-04-26T06:15:39.337Z,98802.66
2019-04-26T06:19:22.100Z,98788.73
2019-04-26T06:22:22.402Z,98785.28
2019-04-26T06:25:55.559Z,98750.24
2019-04-26T06:29:06.093Z,98728.27
2019-04-26T06:32:00.494Z,98719.45
2019-04-26T06:35:22.209Z,98723.25
2019-04-26T06:39:26.206Z,98726.63
2019-04-26T06:42:49.004Z,98726.00
2019-04-26T06:46:10.789Z,98731.39
2019-04-26T06:49:54.544Z,98742.39
2019-04-26T06:52:33.927Z,98745.45
2019-04-26T06:55:31.152Z,98729.24
2019-04-26T06:59:01.835Z,98714.30
2019-04-26T07:01:49.159Z,98711.58
2019-04-26T07:04:54.360Z,98727.73
2019-04-26T07:08:35.691Z,98718.19
2019-04-26T07:12:25.502Z,98715.11
2019-04-26T07:15:50.786Z,98716.58
2019-04-26T07:20:20.436Z,98710.27
2019-04-26T07:24:06.430Z,98722.70
2019-04-26T07:27:15.239Z,98742.08
2019-04-26T07:30:48.123Z,98745.92
2019-04-26T07:34:21.344Z,98749.29
2019-04-26T07:37:52.050Z,98773.49
2019-04-26T07:41:28.696Z,98777.19
2019-04-26T07:45:05.587Z,98771.86
2019-04-26T07:48:37.415Z,98801.51
2019-04-26T07:52:08.472Z,98825.36
2019-04-26T07:55:37.745Z,98864.91
2019-04-26T07:59:10.685Z,98871.28
2019-04-26T08:02:32.218Z,98888.91
2019-04-26T08:05:27.069Z,98895.05
2019-04-26T08:08:04.223Z,98895.52
2019-04-26T08:10:42.019Z,98880.41
2019-04-26T08:13:20.577Z,98880.49
2019-04-26T08:16:24.508Z,98877.38
2019-04-26T08:19:06.887Z,98879.23
2019-04-26T08:21:47.972Z,98885.91
2019-04-26T08:24:28.386Z,98888.92
2019-04-26T08:27:30.662Z,98891.27
2019-04-26T08:30:19.034Z,98890.78
2019-04-26T08:33:02.168Z,98898.76
2019-04-26T08:35:37.062Z,98911.02
2019-04-26T08:38:19.085Z,98900.83
2019-04-26T08:40:47.939Z,98906.58
2019-04-26T08:43:40.755Z,98911.76
2019-04-26T08:46:41.676Z,98912.48
2019-04-26T08:49:54.130Z,98923.08
2019-04-26T08:52:31.689Z,98930.16
2019-04-26T08:55:13.713Z,98958.89
2019-04-26T08:57:50.849Z,98939.89
2019-04-26T09:00:46.797Z,98951.83
2019-04-26T09:03:44.161Z,98964.22
2019-04-26T09:06:39.230Z,98964.93
2019-04-26T09:09:28.593Z,98971.48
2019-04-26T09:12:08.170Z,98979.13
2019-04-26T09:14:43.430Z,98973.15
2019-04-26T09:17:17.633Z,98965.11
2019-04-26T09:19:51.938Z,98961.21
2019-04-26T09:22:42.706Z,98962.38
2019-04-26T09:25:34.451Z,98964.54
2019-04-26T09:28:19.870Z,98961.52
2019-04-26T09:31:19.590Z,98958.22
2019-04-26T09:34:00.897Z,98950.35
2019-04-26T09:36:35.404Z,98959.70
2019-04-26T09:39:12.194Z,98965.16
2019-04-26T09:41:46.905Z,98964.24
2019-04-26T09:44:34.060Z,98961.77
2019-04-26T09:47:35.645Z,98949.37
2019-04-26T09:50:18.668Z,98943.66
2019-04-26T09:52:54.026Z,98941.59
2019-04-26T09:55:35.525Z,98933.83
2019-04-26T09:58:05.018Z,98944.05
2019-04-26T10:00:44.144Z,98957.02
2019-04-26T10:03:24.290Z,98964.09
2019-04-26T10:05:59.002Z,98966.73
2019-04-26T10:08:32.561Z,98983.73
2019-04-26T10:11:09.719Z,98996.57
2019-04-26T10:14:11.970Z,99002.73
2019-04-26T10:17:03.692Z,98983.12
2019-04-26T10:19:46.729Z,98990.20
2019-04-26T10:22:21.305Z,98998.50
2019-04-26T10:24:56.105Z,99003.39
2019-04-26T10:27:32.449Z,98994.89
2019-04-26T10:30:09.138Z,99000.90
2019-04-26T10:32:46.633Z,99002.16
2019-04-26T10:35:21.708Z,99001.98
2019-04-26T10:37:56.914Z,98993.22
2019-04-26T10:40:35.604Z,98986.63
2019-04-26T10:43:07.411Z,99008.67
2019-04-26T10:45:41.287Z,98975.97
2019-04-26T10:48:15.520Z,98983.45
2019-04-26T10:50:49.262Z,98990.98
2019-04-26T10:53:34.699Z,98985.55
2019-04-26T10:56:33.391Z,98985.08
2019-04-26T10:59:31.773Z,98981.30
2019-04-26T11:02:07.711Z,98986.94
2019-04-26T11:04:42.915Z,98973.28
2019-04-26T11:07:17.430Z,98970.05
2019-04-26T11:09:51.973Z,98986.62
2019-04-26T11:12:26.508Z,98986.01
2019-04-26T11:15:00.825Z,98960.02
2019-04-26T11:17:34.632Z,98950.38
2019-04-26T11:20:10.522Z,98946.89
2019-04-26T11:22:44.028Z,98958.06
2019-04-26T11:25:18.696Z,98943.04
2019-04-26T11:28:02.396Z,98937.25
2019-04-26T11:30:37.237Z,98932.93
2019-04-26T11:33:12.705Z,98925.42
2019-04-26T11:35:47.236Z,98938.78
2019-04-26T11:38:21.845Z,98943.20
2019-04-26T11:41:05.733Z,98932.39
2019-04-26T11:43:31.419Z,98935.72
2019-04-26T11:46:05.252Z,98923.61
2019-04-26T11:48:39.665Z,98905.48
2019-04-26T11:51:13.520Z,98887.30
2019-04-26T11:53:56.946Z,98904.27
2019-04-26T11:56:30.402Z,98917.52
2019-04-26T11:59:04.011Z,98902.08
2019-04-26T12:01:40.567Z,98905.74
2019-04-26T12:04:27.508Z,98906.33
2019-04-26T12:07:17.211Z,98917.23
2019-04-26T12:09:53.672Z,98924.73
2019-04-26T12:12:27.538Z,98931.16
2019-04-26T12:15:03.876Z,98924.91
2019-04-26T12:17:37.399Z,98931.84
2019-04-26T12:20:10.830Z,98916.22
2019-04-26T12:22:47.630Z,98905.73
2019-04-26T12:25:21.383Z,98894.38
2019-04-26T12:27:55.028Z,98884.85
2019-04-26T12:30:29.390Z,98893.09
2019-04-26T12:33:03.514Z,98896.27
2019-04-26T12:35:38.394Z,98891.66
2019-04-26T12:38:12.455Z,98908.59
2019-04-26T12:40:47.601Z,98897.92
2019-04-26T12:43:24.550Z,98909.00
2019-04-26T12:46:16.207Z,98897.86
2019-04-26T12:48:51.440Z,98897.21
2019-04-26T12:51:25.134Z,98897.25
2019-04-26T12:54:03.791Z,98892.89
2019-04-26T12:56:37.050Z,98887.44
2019-04-26T12:59:15.798Z,98873.33
2019-04-26T13:01:49.415Z,98878.73
2019-04-26T13:04:35.553Z,98876.56
2019-04-26T13:07:22.627Z,98875.56
2019-04-26T13:10:00.999Z,98872.69
2019-04-26T13:12:45.817Z,98869.87
2019-04-26T13:16:21.488Z,98866.60
2019-04-26T13:18:58.973Z,98862.97
2019-04-26T13:21:37.364Z,98879.42
2019-04-26T13:24:10.905Z,98867.69
2019-04-26T13:26:50.178Z,98868.58
2019-04-26T13:29:27.266Z,98865.14
2019-04-26T13:32:05.407Z,98855.84
2019-04-26T13:34:40.816Z,98861.98
2019-04-26T13:37:15.947Z,98878.14
2019-04-26T13:39:51.257Z,98879.94
2019-04-26T13:42:30.215Z,98881.94
2019-04-26T13:45:22.159Z,98876.48
2019-04-26T13:48:15.813Z,98870.15
2019-04-26T13:51:01.406Z,98866.95
2019-04-26T13:53:35.851Z,98879.89
2019-04-26T13:56:09.166Z,98873.59
2019-04-26T13:58:43.845Z,98858.40
2019-04-26T14:01:19.787Z,98862.05
2019-04-26T14:03:55.335Z,98868.19
2019-04-26T14:06:29.972Z,98849.99
2019-04-26T14:09:06.272Z,98853.00
2019-04-26T14:11:40.118Z,98858.75
2019-04-26T14:14:15.697Z,98852.11
2019-04-26T14:16:52.068Z,98855.43
2019-04-26T14:19:27.047Z,98853.88
2019-04-26T14:22:03.259Z,98855.80
2019-04-26T14:24:53.108Z,98848.58
2019-04-26T14:27:37.709Z,98851.02
2019-04-26T14:30:12.161Z,98850.84
2019-04-26T14:32:46.880Z,98842.87
2019-04-26T14:35:22.351Z,98853.43
2019-04-26T14:37:56.567Z,98851.73
2019-04-26T14:40:33.741Z,98853.39
2019-04-26T14:43:08.394Z,98865.03
2019-04-26T14:45:55.403Z,98863.14
2019-04-26T14:48:35.905Z,98865.41
2019-04-26T14:51:08.278Z,98858.91
2019-04-26T14:53:43.517Z,98850.53
2019-04-26T14:56:18.212Z,98852.97
2019-04-26T14:58:57.532Z,98855.44
2019-04-26T15:01:49.513Z,98863.86
2019-04-26T15:04:42.212Z,98839.00
2019-04-26T15:07:22.171Z,98843.70
2019-04-26T15:09:57.047Z,98841.19
2019-04-26T15:12:32.422Z,98842.23
2019-04-26T15:15:07.226Z,98843.38
2019-04-26T15:17:42.281Z,98843.10
2019-04-26T15:20:20.479Z,98839.39
2019-04-26T15:22:52.923Z,98841.84
2019-04-26T15:25:26.776Z,98838.71
2019-04-26T15:28:02.329Z,98831.76
2019-04-26T15:30:43.233Z,98842.39
2019-04-26T15:33:17.395Z,98834.31
2019-04-26T15:35:52.290Z,98836.23
2019-04-26T15:38:26.832Z,98828.99
2019-04-26T15:41:43.004Z,98821.69
2019-04-26T15:44:40.869Z,98824.77
2019-04-26T15:47:45.730Z,98823.11
2019-04-26T15:50:40.994Z,98804.89
2019-04-26T15:53:14.819Z,98818.29
2019-04-26T15:55:48.677Z,98828.22
2019-04-26T15:58:22.582Z,98819.56
2019-04-26T16:00:58.036Z,98819.45
2019-04-26T16:03:32.854Z,98831.97
2019-04-26T16:06:08.309Z,98830.66
2019-04-26T16:08:46.416Z,98822.80
2019-04-26T16:11:20.940Z,98826.13
2019-04-26T16:13:55.571Z,98831.12
2019-04-26T16:16:33.011Z,98812.59
2019-04-26T16:19:07.275Z,98807.33
2019-04-26T16:21:42.571Z,98814.38
2019-04-26T16:24:18.072Z,98812.33
2019-04-26T16:27:00.606Z,98820.61
2019-04-26T16:29:59.532Z,98829.42
2019-04-26T16:33:00.042Z,98833.05
2019-04-26T16:35:36.180Z,98832.66
2019-04-26T16:38:28.215Z,98836.89
2019-04-26T16:41:04.407Z,98819.45
2019-04-26T16:43:52.380Z,98829.09
2019-04-26T16:49:03.797Z,98833.73
2019-04-26T16:51:37.236Z,98831.94
2019-04-26T16:54:20.764Z,98822.62
2019-04-26T16:56:47.346Z,98824.77
2019-04-26T16:59:25.931Z,98823.84
2019-04-26T17:00:32.073Z,98835.89
2019-04-26T17:02:02.374Z,98826.74
2019-04-26T17:04:36.288Z,98825.11
2019-04-26T17:07:21.907Z,98823.83
2019-04-26T17:09:57.862Z,98833.53
2019-04-26T17:12:29.930Z,98822.38
2019-04-26T17:15:03.977Z,98831.91
2019-04-26T17:17:45.215Z,98822.61
2019-04-26T17:20:21.041Z,98832.23
2019-04-26T17:23:24.016Z,98820.33
2019-04-26T17:26:33.691Z,98819.46
2019-04-26T17:29:05.631Z,98820.52
2019-04-26T17:31:39.598Z,98820.49
2019-04-26T17:34:28.752Z,98820.97
2019-04-26T17:37:00.108Z,98810.58
2019-04-26T17:39:33.972Z,98809.67
2019-04-26T17:42:10.445Z,98806.27
2019-04-26T17:44:47.851Z,98804.98
2019-04-26T17:47:28.257Z,98806.91
2019-04-26T17:50:08.261Z,98802.45
2019-04-26T17:52:52.045Z,98808.39
2019-04-26T17:55:31.051Z,98816.56
2019-04-26T17:58:14.412Z,98820.17
2019-04-26T18:00:48.769Z,98829.59
2019-04-26T18:03:24.056Z,98834.37
2019-04-26T18:06:01.588Z,98837.00
2019-04-26T18:08:45.196Z,98841.36
2019-04-26T18:11:19.669Z,98849.16
2019-04-26T18:13:53.308Z,98847.55
2019-04-26T18:16:32.914Z,98857.14
2019-04-26T18:19:26.379Z,98856.64
2019-04-26T18:22:12.941Z,98861.01
2019-04-26T18:24:47.053Z,98864.91
2019-04-26T18:27:21.155Z,98863.39
2019-04-26T18:29:55.478Z,98857.54
2019-04-26T18:32:41.801Z,98850.02
2019-04-26T18:35:13.517Z,98854.56
2019-04-26T18:37:51.289Z,98868.50
2019-04-26T18:40:28.468Z,98858.91
2019-04-26T18:43:07.712Z,98858.20
2019-04-26T18:45:44.452Z,98860.22
2019-04-26T18:48:21.176Z,98866.71
2019-04-26T18:50:56.234Z,98864.45
2019-04-26T18:53:49.896Z,98863.13
2019-04-26T18:56:25.289Z,98857.42
2019-04-26T18:59:00.593Z,98862.58
2019-04-26T19:01:40.813Z,98868.17
2019-04-26T19:04:16.116Z,98860.76
2019-04-26T19:06:53.116Z,98868.66
2019-04-26T19:09:31.392Z,98883.09
2019-04-26T19:12:08.108Z,98893.73
2019-04-26T19:15:07.319Z,98889.89
2019-04-26T19:17:51.601Z,98892.41
2019-04-26T19:20:54.103Z,98906.12
2019-04-26T19:23:32.122Z,98913.30
2019-04-26T19:26:09.515Z,98921.98
2019-04-26T19:28:44.409Z,98939.16
2019-04-26T19:31:23.203Z,98930.90
2019-04-26T19:34:01.828Z,98939.01
2019-04-26T19:36:36.866Z,98943.67
2019-04-26T19:39:12.671Z,98943.53
2019-04-26T19:41:46.828Z,98941.45
2019-04-26T19:44:24.051Z,98943.61
2019-04-26T19:47:22.725Z,98942.77
2019-04-26T19:50:23.003Z,98943.04
2019-04-26T19:53:24.930Z,98944.95
2019-04-26T19:56:13.311Z,98950.09
2019-04-26T19:58:57.460Z,98951.91
2019-04-26T20:01:27.511Z,98951.17
2019-04-26T20:04:02.463Z,98948.81
2019-04-26T20:06:38.185Z,98944.50
2019-04-26T20:09:17.628Z,98946.55
2019-04-26T20:11:58.099Z,98953.47
2019-04-26T20:14:44.973Z,98957.01
2019-04-26T20:17:19.938Z,98953.45
2019-04-26T20:19:54.501Z,98950.13
2019-04-26T20:22:33.056Z,98954.06
2019-04-26T20:25:09.152Z,98955.11
2019-04-26T20:27:44.215Z,98956.10
2019-04-26T20:30:51.497Z,98955.73
2019-04-26T20:33:35.857Z,98961.92
2019-04-26T20:36:12.707Z,98967.41
2019-04-26T20:38:47.552Z,98966.22
2019-04-26T20:41:22.030Z,98961.92
2019-04-26T20:44:06.926Z,98966.92
2019-04-26T20:46:37.845Z,98976.22
2019-04-26T20:49:12.566Z,98977.30
2019-04-26T20:51:48.184Z,98980.55
2019-04-26T20:54:23.339Z,98982.06
2019-04-26T20:56:57.213Z,98984.72
2019-04-26T20:59:37.374Z,98974.91
2019-04-26T21:02:20.958Z,98976.22
2019-04-26T21:04:53.110Z,98981.73
2019-04-26T21:07:32.570Z,98990.08
2019-04-26T21:10:15.263Z,98992.47
2019-04-26T21:12:47.390Z,98988.39
2019-04-26T21:15:24.204Z,98986.70
2019-04-26T21:18:02.761Z,98989.23
2019-04-26T21:20:36.851Z,98990.06
2019-04-26T21:23:13.334Z,98994.13
2019-04-26T21:26:16.586Z,98989.01
2019-04-26T21:29:20.282Z,98983.39
2019-04-26T21:32:11.460Z,98984.34
2019-04-26T21:34:50.696Z,98985.41
2019-04-26T21:37:49.554Z,98976.80
2019-04-26T21:40:28.867Z,98965.81
2019-04-26T21:43:06.458Z,98970.80
2019-04-26T21:45:44.030Z,98962.30
2019-04-26T21:48:19.015Z,98962.84
2019-04-26T21:50:53.793Z,98954.98
2019-04-26T21:53:29.780Z,98961.31
2019-04-26T21:56:07.469Z,98962.60
2019-04-26T21:58:39.971Z,98956.64
2019-04-26T22:01:19.453Z,98953.29
2019-04-26T22:03:58.156Z,98956.31
2019-04-26T22:06:30.213Z,98952.24
2019-04-26T22:09:23.739Z,98944.77
2019-04-26T22:11:58.280Z,98944.70
2019-04-26T22:14:34.398Z,98935.87
2019-04-26T22:17:22.589Z,98942.70
2019-04-26T22:20:16.717Z,98933.57
2019-04-26T22:23:11.584Z,98940.03
2019-04-26T22:25:47.522Z,98941.22
2019-04-26T22:28:20.851Z,98943.47
2019-04-26T22:30:59.248Z,98937.44
2019-04-26T22:33:32.655Z,98936.70
2019-04-26T22:36:09.195Z,98935.50
2019-04-26T22:38:43.709Z,98935.19
2019-04-26T22:41:17.343Z,98935.80
2019-04-26T22:44:08.946Z,98938.13
2019-04-26T22:47:07.568Z,98943.21
2019-04-26T22:49:41.974Z,98944.14
2019-04-26T22:52:17.130Z,98941.33
2019-04-26T22:54:50.550Z,98939.72
2019-04-26T22:57:24.111Z,98932.38
2019-04-26T22:59:57.646Z,98927.11
2019-04-26T23:02:31.595Z,98934.00
2019-04-26T23:05:06.068Z,98933.72
2019-04-26T23:07:39.863Z,98939.08
2019-04-26T23:10:15.288Z,98930.25
2019-04-26T23:13:07.849Z,98928.67
2019-04-26T23:16:00.755Z,98926.64
2019-04-26T23:19:00.514Z,98927.52
2019-04-26T23:21:38.248Z,98944.02
2019-04-26T23:24:15.096Z,98937.75
2019-04-26T23:26:46.764Z,98939.68
2019-04-26T23:29:20.270Z,98935.05
2019-04-26T23:31:55.517Z,98935.27
2019-04-26T23:34:28.620Z,98930.62
2019-04-26T23:37:03.191Z,98933.06
2019-04-26T23:39:36.762Z,98934.66
2019-04-26T23:42:12.320Z,98926.44
2019-04-26T23:44:46.171Z,98927.86
2019-04-26T23:47:23.315Z,98920.98
2019-04-26T23:49:56.953Z,98919.59
2019-04-26T23:52:30.761Z,98922.13
2019-04-26T23:55:07.256Z,98922.70
2019-04-26T23:57:39.367Z,98919.25
